sensor_id;sensor_type;location;lat;lon;timestamp;pressure;altitude;pressure_sealevel;temperature;humidity
49999;BME280;68071;45.062;7.356;2023-04-03T00:02:07;94913.03;;;10.24;35.42
49999;BME280;68071;45.062;7.356;2023-04-03T00:05:11;94916.22;;;10.22;36.38
49999;BME280;68071;45.062;7.356;2023-04-03T00:08:15;94909.28;;;10.76;34.89
49999;BME280;68071;45.062;7.356;2023-04-03T00:11:19;94918.16;;;9.87;37.05
49999;BME280;68071;45.062;7.356;2023-04-03T00:14:24;94923.06;;;9.19;40.30
49999;BME280;68071;45.062;7.356;2023-04-03T00:17:28;94922.22;;;9.26;39.59
49999;BME280;68071;45.062;7.356;2023-04-03T00:20:32;94926.53;;;9.27;39.67
49999;BME280;68071;45.062;7.356;2023-04-03T00:23:36;94925.16;;;9.99;36.48
49999;BME280;68071;45.062;7.356;2023-04-03T00:26:40;94922.13;;;10.24;36.57
49999;BME280;68071;45.062;7.356;2023-04-03T00:29:44;94923.75;;;10.87;34.31
49999;BME280;68071;45.062;7.356;2023-04-03T00:32:49;94917.25;;;11.01;34.09
49999;BME280;68071;45.062;7.356;2023-04-03T00:35:53;94917.59;;;10.41;35.96
49999;BME280;68071;45.062;7.356;2023-04-03T00:38:57;94924.38;;;10.71;35.14
49999;BME280;68071;45.062;7.356;2023-04-03T00:42:01;94915.25;;;10.74;34.29
49999;BME280;68071;45.062;7.356;2023-04-03T00:48:20;94909.78;;;11.26;33.03
49999;BME280;68071;45.062;7.356;2023-04-03T00:51:25;94905.41;;;11.01;33.64
49999;BME280;68071;45.062;7.356;2023-04-03T00:54:30;94900.66;;;11.01;33.94
49999;BME280;68071;45.062;7.356;2023-04-03T00:57:35;94907.13;;;11.18;33.17
49999;BME280;68071;45.062;7.356;2023-04-03T01:00:42;94898.69;;;11.02;33.79
49999;BME280;68071;45.062;7.356;2023-04-03T01:03:49;94894.06;;;10.92;34.06
49999;BME280;68071;45.062;7.356;2023-04-03T01:06:56;94908.06;;;11.08;33.49
49999;BME280;68071;45.062;7.356;2023-04-03T01:10:05;94911.72;;;11.29;33.09
49999;BME280;68071;45.062;7.356;2023-04-03T01:13:27;94900.13;;;11.10;33.51
49999;BME280;68071;45.062;7.356;2023-04-03T01:16:32;94902.69;;;10.97;33.76
49999;BME280;68071;45.062;7.356;2023-04-03T01:19:38;94896.22;;;11.08;33.09
49999;BME280;68071;45.062;7.356;2023-04-03T01:26:13;94888.34;;;11.33;32.62
49999;BME280;68071;45.062;7.356;2023-04-03T01:29:18;94897.84;;;11.32;32.65
49999;BME280;68071;45.062;7.356;2023-04-03T01:32:23;94893.81;;;11.10;33.44
49999;BME280;68071;45.062;7.356;2023-04-03T01:35:27;94885.41;;;10.89;33.89
49999;BME280;68071;45.062;7.356;2023-04-03T01:38:32;94887.94;;;11.08;33.04
49999;BME280;68071;45.062;7.356;2023-04-03T01:41:36;94885.78;;;10.92;33.26
49999;BME280;68071;45.062;7.356;2023-04-03T01:44:48;94887.88;;;11.11;32.77
49999;BME280;68071;45.062;7.356;2023-04-03T01:47:52;94870.97;;;11.05;33.42
49999;BME280;68071;45.062;7.356;2023-04-03T01:50:56;94881.81;;;10.93;33.27
49999;BME280;68071;45.062;7.356;2023-04-03T01:54:00;94876.56;;;11.26;32.22
49999;BME280;68071;45.062;7.356;2023-04-03T01:57:05;94870.19;;;11.32;31.90
49999;BME280;68071;45.062;7.356;2023-04-03T02:00:10;94880.06;;;11.06;32.89
49999;BME280;68071;45.062;7.356;2023-04-03T02:03:16;94876.66;;;10.95;32.83
49999;BME280;68071;45.062;7.356;2023-04-03T02:06:21;94874.72;;;10.92;33.13
49999;BME280;68071;45.062;7.356;2023-04-03T02:09:24;94877.16;;;9.44;38.81
49999;BME280;68071;45.062;7.356;2023-04-03T02:12:30;94860.13;;;10.60;33.74
49999;BME280;68071;45.062;7.356;2023-04-03T02:15:38;94869.91;;;10.68;34.34
49999;BME280;68071;45.062;7.356;2023-04-03T02:18:43;94878.16;;;10.41;34.01
49999;BME280;68071;45.062;7.356;2023-04-03T02:21:47;94872.69;;;8.41;41.57
49999;BME280;68071;45.062;7.356;2023-04-03T02:24:52;94869.44;;;9.69;37.48
49999;BME280;68071;45.062;7.356;2023-04-03T02:27:57;94870.44;;;9.87;35.70
49999;BME280;68071;45.062;7.356;2023-04-03T02:31:03;94860.56;;;10.58;33.68
49999;BME280;68071;45.062;7.356;2023-04-03T02:34:08;94861.38;;;10.24;34.85
49999;BME280;68071;45.062;7.356;2023-04-03T02:37:14;94852.53;;;11.23;31.92
49999;BME280;68071;45.062;7.356;2023-04-03T02:40:20;94858.19;;;10.61;33.93
49999;BME280;68071;45.062;7.356;2023-04-03T02:43:24;94870.91;;;8.87;41.21
49999;BME280;68071;45.062;7.356;2023-04-03T02:46:28;94867.06;;;7.45;44.83
49999;BME280;68071;45.062;7.356;2023-04-03T02:49:33;94862.69;;;7.83;43.83
49999;BME280;68071;45.062;7.356;2023-04-03T02:52:37;94860.66;;;7.98;41.71
49999;BME280;68071;45.062;7.356;2023-04-03T02:55:41;94859.09;;;8.01;41.59
49999;BME280;68071;45.062;7.356;2023-04-03T02:58:45;94859.59;;;7.41;43.64
49999;BME280;68071;45.062;7.356;2023-04-03T03:01:49;94860.75;;;7.62;43.68
49999;BME280;68071;45.062;7.356;2023-04-03T03:04:53;94854.94;;;8.56;39.43
49999;BME280;68071;45.062;7.356;2023-04-03T03:07:58;94856.91;;;8.56;40.40
49999;BME280;68071;45.062;7.356;2023-04-03T03:11:03;94856.84;;;7.41;43.28
49999;BME280;68071;45.062;7.356;2023-04-03T03:14:08;94852.34;;;8.16;41.05
49999;BME280;68071;45.062;7.356;2023-04-03T03:17:12;94851.13;;;8.25;41.33
49999;BME280;68071;45.062;7.356;2023-04-03T03:20:16;94843.75;;;8.85;38.24
49999;BME280;68071;45.062;7.356;2023-04-03T03:23:21;94845.47;;;9.63;36.98
49999;BME280;68071;45.062;7.356;2023-04-03T03:26:25;94838.31;;;8.74;38.97
49999;BME280;68071;45.062;7.356;2023-04-03T03:29:30;94841.47;;;9.26;37.15
49999;BME280;68071;45.062;7.356;2023-04-03T03:32:34;94842.56;;;8.83;39.30
49999;BME280;68071;45.062;7.356;2023-04-03T03:35:39;94844.31;;;8.47;40.16
49999;BME280;68071;45.062;7.356;2023-04-03T03:38:44;94832.78;;;9.69;35.73
49999;BME280;68071;45.062;7.356;2023-04-03T03:41:48;94834.78;;;9.65;36.04
49999;BME280;68071;45.062;7.356;2023-04-03T03:44:54;94834.81;;;9.99;35.33
49999;BME280;68071;45.062;7.356;2023-04-03T03:47:58;94837.31;;;9.87;35.31
49999;BME280;68071;45.062;7.356;2023-04-03T03:51:02;94842.59;;;9.32;38.35
49999;BME280;68071;45.062;7.356;2023-04-03T03:54:11;94834.44;;;9.59;36.90
49999;BME280;68071;45.062;7.356;2023-04-03T03:57:16;94831.31;;;9.95;36.54
49999;BME280;68071;45.062;7.356;2023-04-03T04:00:20;94841.41;;;10.44;34.13
49999;BME280;68071;45.062;7.356;2023-04-03T04:03:31;94829.41;;;10.23;35.16
49999;BME280;68071;45.062;7.356;2023-04-03T04:06:35;94832.28;;;8.90;38.20
49999;BME280;68071;45.062;7.356;2023-04-03T04:09:42;94828.00;;;9.35;37.82
49999;BME280;68071;45.062;7.356;2023-04-03T04:12:47;94822.16;;;9.67;37.62
49999;BME280;68071;45.062;7.356;2023-04-03T04:15:53;94828.16;;;9.13;37.91
49999;BME280;68071;45.062;7.356;2023-04-03T04:18:58;94831.69;;;9.17;39.22
49999;BME280;68071;45.062;7.356;2023-04-03T04:22:02;94829.75;;;9.56;35.83
49999;BME280;68071;45.062;7.356;2023-04-03T04:25:08;94821.41;;;8.72;39.63
49999;BME280;68071;45.062;7.356;2023-04-03T04:28:14;94813.28;;;8.40;40.67
49999;BME280;68071;45.062;7.356;2023-04-03T04:31:19;94817.97;;;7.39;45.73
49999;BME280;68071;45.062;7.356;2023-04-03T04:34:23;94811.97;;;7.88;42.48
49999;BME280;68071;45.062;7.356;2023-04-03T04:37:28;94812.41;;;8.61;39.90
49999;BME280;68071;45.062;7.356;2023-04-03T04:40:32;94808.41;;;9.22;37.32
49999;BME280;68071;45.062;7.356;2023-04-03T04:43:37;94799.75;;;9.62;35.93
49999;BME280;68071;45.062;7.356;2023-04-03T04:46:42;94803.78;;;9.08;38.32
49999;BME280;68071;45.062;7.356;2023-04-03T04:49:47;94801.31;;;8.72;39.27
49999;BME280;68071;45.062;7.356;2023-04-03T04:52:52;94799.31;;;8.76;39.50
49999;BME280;68071;45.062;7.356;2023-04-03T04:55:56;94801.78;;;9.16;37.59
49999;BME280;68071;45.062;7.356;2023-04-03T04:59:01;94794.38;;;9.47;37.81
49999;BME280;68071;45.062;7.356;2023-04-03T05:02:05;94807.53;;;8.83;41.62
49999;BME280;68071;45.062;7.356;2023-04-03T05:05:09;94804.47;;;8.70;38.21
49999;BME280;68071;45.062;7.356;2023-04-03T05:08:14;94804.94;;;7.72;43.40
49999;BME280;68071;45.062;7.356;2023-04-03T05:11:20;94819.97;;;6.81;47.16
49999;BME280;68071;45.062;7.356;2023-04-03T05:14:27;94820.28;;;6.25;47.75
49999;BME280;68071;45.062;7.356;2023-04-03T05:17:34;94815.28;;;6.74;47.33
49999;BME280;68071;45.062;7.356;2023-04-03T05:20:39;94817.22;;;7.06;45.25
49999;BME280;68071;45.062;7.356;2023-04-03T05:23:44;94821.88;;;7.64;41.78
49999;BME280;68071;45.062;7.356;2023-04-03T05:26:48;94824.28;;;7.40;44.01
49999;BME280;68071;45.062;7.356;2023-04-03T05:29:54;94823.09;;;6.76;47.38
49999;BME280;68071;45.062;7.356;2023-04-03T05:32:59;94818.75;;;7.47;44.64
49999;BME280;68071;45.062;7.356;2023-04-03T05:36:13;94815.44;;;7.99;43.42
49999;BME280;68071;45.062;7.356;2023-04-03T05:39:21;94814.13;;;8.33;41.33
49999;BME280;68071;45.062;7.356;2023-04-03T05:42:26;94822.59;;;7.82;45.96
49999;BME280;68071;45.062;7.356;2023-04-03T05:45:31;94817.84;;;7.86;45.02
49999;BME280;68071;45.062;7.356;2023-04-03T05:48:36;94814.16;;;8.29;44.75
49999;BME280;68071;45.062;7.356;2023-04-03T05:51:41;94814.63;;;8.06;51.03
49999;BME280;68071;45.062;7.356;2023-04-03T05:54:57;94824.91;;;7.95;47.47
49999;BME280;68071;45.062;7.356;2023-04-03T05:58:04;94822.41;;;8.26;49.89
49999;BME280;68071;45.062;7.356;2023-04-03T06:01:09;94822.34;;;8.37;45.97
49999;BME280;68071;45.062;7.356;2023-04-03T06:04:14;94820.25;;;8.70;44.18
49999;BME280;68071;45.062;7.356;2023-04-03T06:07:20;94817.47;;;9.19;41.60
49999;BME280;68071;45.062;7.356;2023-04-03T06:10:27;94819.09;;;9.16;43.53
49999;BME280;68071;45.062;7.356;2023-04-03T06:13:31;94818.09;;;9.37;43.82
49999;BME280;68071;45.062;7.356;2023-04-03T06:16:36;94822.22;;;9.64;40.83
49999;BME280;68071;45.062;7.356;2023-04-03T06:19:41;94828.81;;;9.74;44.50
49999;BME280;68071;45.062;7.356;2023-04-03T06:22:45;94825.25;;;9.73;44.70
49999;BME280;68071;45.062;7.356;2023-04-03T06:25:49;94824.75;;;9.82;42.82
49999;BME280;68071;45.062;7.356;2023-04-03T06:28:53;94820.44;;;10.16;41.61
49999;BME280;68071;45.062;7.356;2023-04-03T06:31:57;94823.66;;;10.10;40.53
49999;BME280;68071;45.062;7.356;2023-04-03T06:35:01;94822.41;;;10.15;42.85
49999;BME280;68071;45.062;7.356;2023-04-03T06:38:05;94824.16;;;10.33;41.81
49999;BME280;68071;45.062;7.356;2023-04-03T06:41:13;94819.00;;;10.38;40.00
49999;BME280;68071;45.062;7.356;2023-04-03T06:44:17;94826.63;;;10.58;38.95
49999;BME280;68071;45.062;7.356;2023-04-03T06:47:20;94830.09;;;10.66;40.23
49999;BME280;68071;45.062;7.356;2023-04-03T06:50:24;94826.91;;;11.18;40.15
49999;BME280;68071;45.062;7.356;2023-04-03T06:53:28;94825.91;;;10.81;39.94
49999;BME280;68071;45.062;7.356;2023-04-03T06:56:33;94832.09;;;10.89;40.43
49999;BME280;68071;45.062;7.356;2023-04-03T06:59:37;94825.63;;;10.99;40.22
49999;BME280;68071;45.062;7.356;2023-04-03T07:02:41;94831.13;;;11.03;41.94
49999;BME280;68071;45.062;7.356;2023-04-03T07:05:45;94827.19;;;11.00;41.98
49999;BME280;68071;45.062;7.356;2023-04-03T07:08:49;94830.53;;;11.63;41.88
49999;BME280;68071;45.062;7.356;2023-04-03T07:11:54;94834.22;;;11.32;37.98
49999;BME280;68071;45.062;7.356;2023-04-03T07:14:57;94826.66;;;11.33;37.82
49999;BME280;68071;45.062;7.356;2023-04-03T07:18:02;94824.16;;;11.86;38.94
49999;BME280;68071;45.062;7.356;2023-04-03T07:21:06;94826.59;;;12.04;40.08
49999;BME280;68071;45.062;7.356;2023-04-03T07:24:11;94826.97;;;12.27;38.50
49999;BME280;68071;45.062;7.356;2023-04-03T07:27:14;94826.00;;;11.93;37.78
49999;BME280;68071;45.062;7.356;2023-04-03T07:30:19;94827.69;;;11.87;37.42
49999;BME280;68071;45.062;7.356;2023-04-03T07:33:22;94829.75;;;12.27;37.28
49999;BME280;68071;45.062;7.356;2023-04-03T07:36:27;94824.56;;;12.29;37.51
49999;BME280;68071;45.062;7.356;2023-04-03T07:39:31;94826.66;;;12.41;39.39
49999;BME280;68071;45.062;7.356;2023-04-03T07:42:35;94824.94;;;12.84;38.43
49999;BME280;68071;45.062;7.356;2023-04-03T07:45:40;94821.72;;;12.69;37.53
49999;BME280;68071;45.062;7.356;2023-04-03T07:48:44;94824.97;;;13.00;37.37
49999;BME280;68071;45.062;7.356;2023-04-03T07:51:48;94823.59;;;12.92;35.70
49999;BME280;68071;45.062;7.356;2023-04-03T07:54:52;94825.44;;;13.49;35.73
49999;BME280;68071;45.062;7.356;2023-04-03T07:57:56;94826.13;;;13.03;34.98
49999;BME280;68071;45.062;7.356;2023-04-03T08:01:00;94825.44;;;13.49;34.86
49999;BME280;68071;45.062;7.356;2023-04-03T08:04:05;94817.00;;;13.02;37.04
49999;BME280;68071;45.062;7.356;2023-04-03T08:07:10;94814.56;;;13.21;35.32
49999;BME280;68071;45.062;7.356;2023-04-03T08:10:14;94815.78;;;13.37;34.79
49999;BME280;68071;45.062;7.356;2023-04-03T08:13:20;94818.81;;;13.26;36.95
49999;BME280;68071;45.062;7.356;2023-04-03T08:16:24;94816.59;;;13.54;36.08
49999;BME280;68071;45.062;7.356;2023-04-03T08:19:31;94813.25;;;13.26;35.33
49999;BME280;68071;45.062;7.356;2023-04-03T08:22:35;94810.84;;;13.61;35.08
49999;BME280;68071;45.062;7.356;2023-04-03T08:25:40;94817.34;;;13.71;34.62
49999;BME280;68071;45.062;7.356;2023-04-03T08:28:45;94818.59;;;13.99;35.14
49999;BME280;68071;45.062;7.356;2023-04-03T08:31:49;94803.50;;;13.84;34.80
49999;BME280;68071;45.062;7.356;2023-04-03T08:34:53;94813.25;;;14.34;36.71
49999;BME280;68071;45.062;7.356;2023-04-03T08:37:58;94807.31;;;14.19;38.21
49999;BME280;68071;45.062;7.356;2023-04-03T08:41:16;94814.00;;;14.35;37.25
49999;BME280;68071;45.062;7.356;2023-04-03T08:44:50;94806.81;;;14.63;35.05
49999;BME280;68071;45.062;7.356;2023-04-03T08:48:04;94814.09;;;14.87;35.66
49999;BME280;68071;45.062;7.356;2023-04-03T08:51:14;94808.28;;;14.68;35.54
49999;BME280;68071;45.062;7.356;2023-04-03T08:54:27;94804.19;;;14.98;36.82
49999;BME280;68071;45.062;7.356;2023-04-03T08:57:38;94800.44;;;14.37;35.00
49999;BME280;68071;45.062;7.356;2023-04-03T09:00:53;94804.97;;;14.31;33.97
49999;BME280;68071;45.062;7.356;2023-04-03T09:04:01;94795.09;;;14.30;34.03
49999;BME280;68071;45.062;7.356;2023-04-03T09:07:19;94810.81;;;14.49;33.20
49999;BME280;68071;45.062;7.356;2023-04-03T09:10:28;94809.81;;;14.43;34.20
49999;BME280;68071;45.062;7.356;2023-04-03T09:17:12;94784.47;;;14.67;32.95
49999;BME280;68071;45.062;7.356;2023-04-03T09:20:27;94792.00;;;14.53;32.08
49999;BME280;68071;45.062;7.356;2023-04-03T09:23:47;94787.44;;;14.47;32.47
49999;BME280;68071;45.062;7.356;2023-04-03T09:26:57;94784.91;;;14.52;31.77
49999;BME280;68071;45.062;7.356;2023-04-03T09:30:03;94782.44;;;14.55;32.80
49999;BME280;68071;45.062;7.356;2023-04-03T09:33:08;94772.31;;;15.38;33.38
49999;BME280;68071;45.062;7.356;2023-04-03T09:36:13;94783.72;;;15.53;33.47
49999;BME280;68071;45.062;7.356;2023-04-03T09:39:22;94774.75;;;15.49;33.13
49999;BME280;68071;45.062;7.356;2023-04-03T09:42:30;94766.69;;;15.51;33.78
49999;BME280;68071;45.062;7.356;2023-04-03T09:45:35;94770.13;;;15.55;30.29
49999;BME280;68071;45.062;7.356;2023-04-03T09:48:50;94768.66;;;15.64;32.49
49999;BME280;68071;45.062;7.356;2023-04-03T09:51:54;94763.94;;;15.86;33.29
49999;BME280;68071;45.062;7.356;2023-04-03T09:55:24;94765.75;;;16.02;30.97
49999;BME280;68071;45.062;7.356;2023-04-03T09:58:40;94768.41;;;16.06;31.06
49999;BME280;68071;45.062;7.356;2023-04-03T10:05:30;94751.38;;;16.58;29.84
49999;BME280;68071;45.062;7.356;2023-04-03T10:08:35;94756.75;;;16.21;31.75
49999;BME280;68071;45.062;7.356;2023-04-03T10:15:00;94740.13;;;16.80;30.59
49999;BME280;68071;45.062;7.356;2023-04-03T10:25:41;94746.72;;;16.96;29.75
49999;BME280;68071;45.062;7.356;2023-04-03T10:34:46;94737.53;;;16.23;32.80
49999;BME280;68071;45.062;7.356;2023-04-03T10:41:22;94732.91;;;16.51;29.85
49999;BME280;68071;45.062;7.356;2023-04-03T10:44:31;94729.53;;;16.34;33.50
49999;BME280;68071;45.062;7.356;2023-04-03T10:51:13;94724.31;;;15.92;31.29
49999;BME280;68071;45.062;7.356;2023-04-03T10:54:27;94713.75;;;16.72;31.41
49999;BME280;68071;45.062;7.356;2023-04-03T10:57:32;94720.38;;;16.97;30.15
49999;BME280;68071;45.062;7.356;2023-04-03T11:00:42;94704.94;;;17.23;30.35
49999;BME280;68071;45.062;7.356;2023-04-03T11:03:53;94711.06;;;17.00;31.41
49999;BME280;68071;45.062;7.356;2023-04-03T11:07:06;94702.06;;;16.96;31.07
49999;BME280;68071;45.062;7.356;2023-04-03T11:10:36;94693.50;;;16.90;31.40
49999;BME280;68071;45.062;7.356;2023-04-03T11:20:29;94681.16;;;16.59;29.85
49999;BME280;68071;45.062;7.356;2023-04-03T11:23:39;94680.09;;;17.35;30.07
49999;BME280;68071;45.062;7.356;2023-04-03T11:26:44;94677.47;;;17.31;29.37
49999;BME280;68071;45.062;7.356;2023-04-03T11:29:49;94670.00;;;17.28;28.06
49999;BME280;68071;45.062;7.356;2023-04-03T11:33:34;94665.22;;;17.66;29.61
49999;BME280;68071;45.062;7.356;2023-04-03T11:36:49;94652.16;;;17.35;30.76
49999;BME280;68071;45.062;7.356;2023-04-03T11:40:04;94656.81;;;17.75;28.75
49999;BME280;68071;45.062;7.356;2023-04-03T11:43:23;94644.34;;;17.95;26.66
49999;BME280;68071;45.062;7.356;2023-04-03T11:46:52;94638.03;;;17.66;33.65
49999;BME280;68071;45.062;7.356;2023-04-03T11:50:04;94638.56;;;18.17;29.11
49999;BME280;68071;45.062;7.356;2023-04-03T11:59:37;94631.50;;;17.69;28.38
49999;BME280;68071;45.062;7.356;2023-04-03T12:02:46;94624.47;;;17.93;28.79
49999;BME280;68071;45.062;7.356;2023-04-03T12:09:35;94614.72;;;18.40;26.92
49999;BME280;68071;45.062;7.356;2023-04-03T12:12:59;94609.25;;;17.94;27.70
49999;BME280;68071;45.062;7.356;2023-04-03T12:16:07;94612.88;;;16.92;28.95
49999;BME280;68071;45.062;7.356;2023-04-03T12:19:38;94608.06;;;16.24;28.28
49999;BME280;68071;45.062;7.356;2023-04-03T12:23:25;94597.88;;;17.27;29.24
49999;BME280;68071;45.062;7.356;2023-04-03T12:33:27;94588.22;;;16.31;31.63
49999;BME280;68071;45.062;7.356;2023-04-03T12:36:41;94583.66;;;16.56;31.68
49999;BME280;68071;45.062;7.356;2023-04-03T12:46:42;94564.34;;;16.99;29.42
49999;BME280;68071;45.062;7.356;2023-04-03T12:49:49;94562.88;;;17.68;28.69
49999;BME280;68071;45.062;7.356;2023-04-03T12:53:05;94560.56;;;17.67;27.47
49999;BME280;68071;45.062;7.356;2023-04-03T12:56:24;94556.91;;;18.37;26.38
49999;BME280;68071;45.062;7.356;2023-04-03T12:59:28;94550.72;;;18.57;26.28
49999;BME280;68071;45.062;7.356;2023-04-03T13:02:33;94554.09;;;18.37;28.69
49999;BME280;68071;45.062;7.356;2023-04-03T13:05:38;94550.31;;;18.16;28.66
49999;BME280;68071;45.062;7.356;2023-04-03T13:08:50;94542.41;;;18.14;29.10
49999;BME280;68071;45.062;7.356;2023-04-03T13:12:08;94525.34;;;18.37;26.13
49999;BME280;68071;45.062;7.356;2023-04-03T13:15:30;94528.28;;;18.67;25.93
49999;BME280;68071;45.062;7.356;2023-04-03T13:18:36;94528.13;;;17.60;29.81
49999;BME280;68071;45.062;7.356;2023-04-03T13:21:40;94520.69;;;17.57;27.22
49999;BME280;68071;45.062;7.356;2023-04-03T13:24:50;94514.13;;;17.08;28.64
49999;BME280;68071;45.062;7.356;2023-04-03T13:27:59;94519.09;;;18.18;29.10
49999;BME280;68071;45.062;7.356;2023-04-03T13:31:08;94514.09;;;17.79;29.52
49999;BME280;68071;45.062;7.356;2023-04-03T13:34:19;94517.63;;;18.56;27.72
49999;BME280;68071;45.062;7.356;2023-04-03T13:37:25;94516.28;;;18.18;27.73
49999;BME280;68071;45.062;7.356;2023-04-03T13:40:30;94505.06;;;17.84;29.68
49999;BME280;68071;45.062;7.356;2023-04-03T13:43:36;94504.06;;;18.39;27.71
49999;BME280;68071;45.062;7.356;2023-04-03T13:46:40;94504.47;;;18.47;26.13
49999;BME280;68071;45.062;7.356;2023-04-03T13:49:58;94491.94;;;17.66;25.12
49999;BME280;68071;45.062;7.356;2023-04-03T13:53:13;94484.34;;;17.05;29.00
49999;BME280;68071;45.062;7.356;2023-04-03T13:56:31;94492.63;;;17.85;27.66
49999;BME280;68071;45.062;7.356;2023-04-03T13:59:56;94491.19;;;18.57;26.46
49999;BME280;68071;45.062;7.356;2023-04-03T14:03:00;94479.75;;;18.85;25.86
49999;BME280;68071;45.062;7.356;2023-04-03T14:06:05;94491.91;;;18.82;28.37
49999;BME280;68071;45.062;7.356;2023-04-03T14:09:10;94490.66;;;18.43;26.44
49999;BME280;68071;45.062;7.356;2023-04-03T14:12:19;94482.13;;;18.13;27.66
49999;BME280;68071;45.062;7.356;2023-04-03T14:15:28;94486.38;;;17.99;28.02
49999;BME280;68071;45.062;7.356;2023-04-03T14:18:33;94477.13;;;17.32;29.12
49999;BME280;68071;45.062;7.356;2023-04-03T14:21:38;94483.94;;;17.40;30.35
49999;BME280;68071;45.062;7.356;2023-04-03T14:24:43;94518.97;;;16.20;29.96
49999;BME280;68071;45.062;7.356;2023-04-03T14:27:49;94523.75;;;13.97;31.84
49999;BME280;68071;45.062;7.356;2023-04-03T14:30:53;94514.72;;;13.93;31.54
49999;BME280;68071;45.062;7.356;2023-04-03T14:33:57;94499.75;;;13.52;33.69
49999;BME280;68071;45.062;7.356;2023-04-03T14:37:01;94513.69;;;13.35;33.77
49999;BME280;68071;45.062;7.356;2023-04-03T14:40:06;94499.94;;;13.31;33.67
49999;BME280;68071;45.062;7.356;2023-04-03T14:43:12;94517.31;;;13.19;34.64
49999;BME280;68071;45.062;7.356;2023-04-03T14:46:23;94505.22;;;13.26;34.29
49999;BME280;68071;45.062;7.356;2023-04-03T14:49:30;94503.34;;;13.36;32.45
49999;BME280;68071;45.062;7.356;2023-04-03T14:52:35;94497.81;;;13.36;32.91
49999;BME280;68071;45.062;7.356;2023-04-03T14:55:40;94496.88;;;13.42;32.75
49999;BME280;68071;45.062;7.356;2023-04-03T14:58:44;94483.63;;;13.72;31.63
49999;BME280;68071;45.062;7.356;2023-04-03T15:01:52;94485.53;;;13.75;31.63
49999;BME280;68071;45.062;7.356;2023-04-03T15:04:57;94487.28;;;13.82;31.71
49999;BME280;68071;45.062;7.356;2023-04-03T15:08:02;94491.97;;;13.72;31.34
49999;BME280;68071;45.062;7.356;2023-04-03T15:11:06;94487.38;;;13.91;31.40
49999;BME280;68071;45.062;7.356;2023-04-03T15:14:10;94492.31;;;13.87;31.49
49999;BME280;68071;45.062;7.356;2023-04-03T15:17:16;94491.41;;;13.77;31.65
49999;BME280;68071;45.062;7.356;2023-04-03T15:20:24;94509.94;;;13.81;31.83
49999;BME280;68071;45.062;7.356;2023-04-03T15:23:29;94517.31;;;13.74;33.27
49999;BME280;68071;45.062;7.356;2023-04-03T15:26:34;94529.75;;;13.57;33.53
49999;BME280;68071;45.062;7.356;2023-04-03T15:29:40;94544.00;;;13.29;34.19
49999;BME280;68071;45.062;7.356;2023-04-03T15:32:45;94538.22;;;13.37;34.25
49999;BME280;68071;45.062;7.356;2023-04-03T15:35:49;94539.25;;;13.43;35.20
49999;BME280;68071;45.062;7.356;2023-04-03T15:38:53;94554.00;;;13.40;34.50
49999;BME280;68071;45.062;7.356;2023-04-03T15:41:58;94564.47;;;13.49;35.84
49999;BME280;68071;45.062;7.356;2023-04-03T15:45:09;94555.84;;;13.72;36.73
49999;BME280;68071;45.062;7.356;2023-04-03T15:48:14;94578.72;;;14.15;36.56
49999;BME280;68071;45.062;7.356;2023-04-03T15:51:19;94575.41;;;13.95;37.48
49999;BME280;68071;45.062;7.356;2023-04-03T15:54:24;94569.03;;;14.20;37.02
49999;BME280;68071;45.062;7.356;2023-04-03T15:57:28;94574.84;;;14.00;38.57
49999;BME280;68071;45.062;7.356;2023-04-03T16:00:32;94575.84;;;14.80;36.37
49999;BME280;68071;45.062;7.356;2023-04-03T16:03:37;94574.44;;;14.62;34.72
49999;BME280;68071;45.062;7.356;2023-04-03T16:06:49;94574.78;;;14.51;36.05
49999;BME280;68071;45.062;7.356;2023-04-03T16:09:54;94576.53;;;15.06;35.91
49999;BME280;68071;45.062;7.356;2023-04-03T16:12:58;94577.28;;;14.85;34.49
49999;BME280;68071;45.062;7.356;2023-04-03T16:16:03;94569.16;;;15.12;36.37
49999;BME280;68071;45.062;7.356;2023-04-03T16:19:08;94548.94;;;15.43;37.45
49999;BME280;68071;45.062;7.356;2023-04-03T16:22:13;94556.50;;;14.76;40.82
49999;BME280;68071;45.062;7.356;2023-04-03T16:25:17;94555.44;;;15.18;39.00
49999;BME280;68071;45.062;7.356;2023-04-03T16:28:21;94561.88;;;14.71;40.66
49999;BME280;68071;45.062;7.356;2023-04-03T16:31:25;94560.28;;;13.70;40.98
49999;BME280;68071;45.062;7.356;2023-04-03T16:34:29;94567.72;;;14.25;42.40
49999;BME280;68071;45.062;7.356;2023-04-03T16:37:37;94559.06;;;14.22;41.97
49999;BME280;68071;45.062;7.356;2023-04-03T16:40:42;94567.19;;;14.04;39.66
49999;BME280;68071;45.062;7.356;2023-04-03T16:43:47;94571.72;;;13.85;38.93
49999;BME280;68071;45.062;7.356;2023-04-03T16:46:50;94568.75;;;13.92;38.81
49999;BME280;68071;45.062;7.356;2023-04-03T16:49:54;94579.97;;;13.88;38.39
49999;BME280;68071;45.062;7.356;2023-04-03T16:52:59;94580.28;;;13.77;40.34
49999;BME280;68071;45.062;7.356;2023-04-03T16:56:03;94577.28;;;13.59;40.73
49999;BME280;68071;45.062;7.356;2023-04-03T16:59:08;94578.69;;;13.51;42.15
49999;BME280;68071;45.062;7.356;2023-04-03T17:02:11;94585.75;;;13.39;43.43
49999;BME280;68071;45.062;7.356;2023-04-03T17:05:15;94591.53;;;13.02;46.99
49999;BME280;68071;45.062;7.356;2023-04-03T17:08:20;94589.75;;;13.08;47.48
49999;BME280;68071;45.062;7.356;2023-04-03T17:11:24;94603.56;;;12.49;48.94
49999;BME280;68071;45.062;7.356;2023-04-03T17:14:29;94598.97;;;12.26;48.96
49999;BME280;68071;45.062;7.356;2023-04-03T17:17:33;94612.13;;;12.05;48.11
49999;BME280;68071;45.062;7.356;2023-04-03T17:20:37;94606.75;;;12.64;44.96
49999;BME280;68071;45.062;7.356;2023-04-03T17:23:44;94609.66;;;12.90;44.30
49999;BME280;68071;45.062;7.356;2023-04-03T17:26:50;94606.59;;;12.71;44.24
49999;BME280;68071;45.062;7.356;2023-04-03T17:29:54;94619.03;;;11.97;47.14
49999;BME280;68071;45.062;7.356;2023-04-03T17:32:58;94628.41;;;12.20;45.68
49999;BME280;68071;45.062;7.356;2023-04-03T17:36:03;94628.03;;;12.01;46.73
49999;BME280;68071;45.062;7.356;2023-04-03T17:39:07;94633.34;;;11.75;47.85
49999;BME280;68071;45.062;7.356;2023-04-03T17:42:11;94645.22;;;11.56;49.13